createdAt,value
2019-01-19T00:01:00.658Z,6.03
2019-01-19T00:03:47.056Z,5.62
2019-01-19T00:06:38.029Z,5.97
2019-01-19T00:09:16.237Z,5.53
2019-01-19T00:11:59.426Z,4.90
2019-01-19T00:14:32.766Z,5.20
2019-01-19T00:17:10.330Z,5.60
2019-01-19T00:19:58.095Z,5.25
2019-01-19T00:22:44.591Z,5.15
2019-01-19T00:25:32.381Z,4.85
2019-01-19T00:28:20.184Z,5.83
2019-01-19T00:30:51.842Z,5.22
2019-01-19T00:33:27.465Z,5.70
2019-01-19T00:36:14.083Z,5.30
2019-01-19T00:39:00.426Z,5.08
2019-01-19T00:41:38.054Z,5.12
2019-01-19T00:44:17.079Z,5.58
2019-01-19T00:47:03.591Z,5.75
2019-01-19T00:49:37.777Z,5.17
2019-01-19T00:52:27.405Z,5.65
2019-01-19T00:55:15.192Z,5.60
2019-01-19T00:57:57.642Z,5.10
2019-01-19T01:00:35.480Z,6.28
2019-01-19T01:03:07.854Z,6.20
2019-01-19T01:05:55.801Z,5.95
2019-01-19T01:08:42.152Z,6.28
2019-01-19T01:11:23.025Z,5.60
2019-01-19T01:13:59.696Z,5.90
2019-01-19T01:16:59.557Z,5.55
2019-01-19T01:19:35.664Z,5.75
2019-01-19T01:22:18.922Z,6.03
2019-01-19T01:25:10.029Z,5.28
2019-01-19T01:27:42.080Z,5.53
2019-01-19T01:30:27.885Z,5.72
2019-01-19T01:33:18.654Z,5.53
2019-01-19T01:36:06.436Z,6.10
2019-01-19T01:38:54.276Z,5.83
2019-01-19T01:41:45.461Z,6.15
2019-01-19T01:44:36.307Z,6.20
2019-01-19T01:47:22.993Z,6.03
2019-01-19T01:50:13.721Z,6.75
2019-01-19T01:52:52.214Z,6.90
2019-01-19T01:55:26.565Z,6.97
2019-01-19T01:58:14.374Z,6.62
2019-01-19T02:00:48.763Z,6.65
2019-01-19T02:03:42.617Z,7.35
2019-01-19T02:06:45.479Z,7.45
2019-01-19T02:09:35.529Z,7.50
2019-01-19T02:12:12.975Z,7.50
2019-01-19T02:14:56.171Z,7.58
2019-01-19T02:17:46.544Z,7.37
2019-01-19T02:20:27.417Z,7.10
2019-01-19T02:23:33.743Z,7.03
2019-01-19T02:26:24.704Z,8.30
2019-01-19T02:29:15.225Z,7.42
2019-01-19T02:31:53.482Z,8.43
2019-01-19T02:34:32.486Z,8.15
2019-01-19T02:37:23.852Z,9.48
2019-01-19T02:40:11.682Z,8.90
2019-01-19T02:42:43.620Z,9.65
2019-01-19T02:45:18.048Z,11.03
2019-01-19T02:48:04.418Z,10.15
2019-01-19T02:50:42.196Z,10.32
2019-01-19T02:53:28.768Z,10.80
2019-01-19T02:56:00.581Z,11.00
2019-01-19T02:58:54.750Z,10.90
2019-01-19T03:01:41.182Z,11.53
2019-01-19T03:04:34.084Z,11.30
2019-01-19T03:07:34.282Z,11.83
2019-01-19T03:10:22.540Z,13.03
2019-01-19T03:13:08.962Z,11.88
2019-01-19T03:15:48.069Z,11.78
2019-01-19T03:18:23.104Z,12.30
2019-01-19T03:21:05.942Z,12.45
2019-01-19T03:23:38.163Z,12.80
2019-01-19T03:26:26.021Z,12.70
2019-01-19T03:29:19.890Z,12.88
2019-01-19T03:32:22.920Z,11.97
2019-01-19T03:35:19.012Z,11.60
2019-01-19T03:38:14.385Z,13.22
2019-01-19T03:41:28.445Z,13.35
2019-01-19T03:44:15.843Z,14.63
2019-01-19T03:47:13.165Z,14.05
2019-01-19T03:50:07.857Z,14.25
2019-01-19T03:53:01.211Z,13.38
2019-01-19T03:56:07.356Z,13.25
2019-01-19T03:59:04.922Z,14.05
2019-01-19T04:02:08.380Z,13.65
2019-01-19T04:05:23.051Z,13.80
2019-01-19T04:08:28.293Z,14.23
2019-01-19T04:11:48.165Z,13.98
2019-01-19T04:15:01.695Z,13.72
2019-01-19T04:17:53.294Z,13.35
2019-01-19T04:20:44.843Z,13.32
2019-01-19T04:23:14.175Z,12.60
2019-01-19T04:25:54.407Z,13.88
2019-01-19T04:28:25.983Z,12.47
2019-01-19T04:30:55.235Z,12.35
2019-01-19T04:33:24.535Z,13.25
2019-01-19T04:35:53.820Z,13.45
2019-01-19T04:38:23.128Z,12.50
2019-01-19T04:40:52.492Z,14.13
2019-01-19T04:43:21.752Z,13.53
2019-01-19T04:45:51.053Z,12.45
2019-01-19T04:48:22.123Z,13.20
2019-01-19T04:50:51.392Z,12.00
2019-01-19T04:53:20.724Z,11.90
2019-01-19T04:55:49.991Z,12.63
2019-01-19T04:58:19.221Z,11.80
2019-01-19T05:00:48.596Z,11.38
2019-01-19T05:03:17.857Z,10.08
2019-01-19T05:05:47.116Z,9.80
2019-01-19T05:08:16.340Z,10.80
2019-01-19T05:10:45.583Z,9.00
2019-01-19T05:13:14.907Z,9.40
2019-01-19T05:15:44.079Z,8.90
2019-01-19T05:18:13.624Z,8.73
2019-01-19T05:20:42.781Z,8.48
2019-01-19T05:23:11.982Z,8.18
2019-01-19T05:25:41.244Z,8.00
2019-01-19T05:28:10.477Z,7.08
2019-01-19T05:30:39.798Z,7.60
2019-01-19T05:33:09.056Z,7.35
2019-01-19T05:35:38.362Z,6.35
2019-01-19T05:38:07.996Z,6.55
2019-01-19T05:40:37.193Z,6.25
2019-01-19T05:43:06.580Z,6.78
2019-01-19T05:45:35.800Z,6.78
2019-01-19T05:48:04.935Z,6.95
2019-01-19T05:50:34.345Z,6.33
2019-01-19T05:53:03.625Z,6.70
2019-01-19T05:55:32.800Z,5.92
2019-01-19T05:58:02.048Z,5.58
2019-01-19T06:00:33.676Z,6.33
2019-01-19T06:03:02.893Z,6.00
2019-01-19T06:05:32.187Z,5.45
2019-01-19T06:08:01.366Z,4.72
2019-01-19T06:10:30.648Z,5.08
2019-01-19T06:12:59.811Z,4.85
2019-01-19T06:15:28.967Z,4.40
2019-01-19T06:17:58.257Z,4.92
2019-01-19T06:20:27.501Z,4.62
2019-01-19T06:22:56.699Z,4.58
2019-01-19T06:25:25.903Z,4.60
2019-01-19T06:27:55.068Z,4.50
2019-01-19T06:30:24.956Z,4.97
2019-01-19T06:32:54.240Z,4.90
2019-01-19T06:35:23.403Z,5.20
2019-01-19T06:37:52.560Z,5.70
2019-01-19T06:40:21.762Z,5.40
2019-01-19T06:42:50.908Z,5.30
2019-01-19T06:45:22.785Z,5.25
2019-01-19T06:47:51.991Z,4.95
2019-01-19T06:50:40.436Z,4.72
2019-01-19T06:53:09.810Z,5.08
2019-01-19T06:55:39.156Z,5.45
2019-01-19T06:58:08.363Z,5.80
2019-01-19T07:00:37.700Z,5.22
2019-01-19T07:03:06.966Z,5.12
2019-01-19T07:05:36.172Z,4.85
2019-01-19T07:08:05.472Z,4.65
2019-01-19T07:10:34.811Z,5.30
2019-01-19T07:13:04.052Z,4.87
2019-01-19T07:15:33.409Z,5.25
2019-01-19T07:18:02.742Z,5.05
2019-01-19T07:20:32.037Z,5.08
2019-01-19T07:23:01.342Z,5.53
2019-01-19T07:25:30.669Z,5.30
2019-01-19T07:27:59.996Z,5.70
2019-01-19T07:30:29.228Z,4.87
2019-01-19T07:32:58.480Z,4.97
2019-01-19T07:35:27.702Z,5.15
2019-01-19T07:37:56.958Z,5.15
2019-01-19T07:40:27.029Z,4.60
2019-01-19T07:42:59.284Z,4.90
2019-01-19T07:45:28.507Z,4.78
2019-01-19T07:51:19.059Z,5.17
2019-01-19T07:53:48.581Z,4.35
2019-01-19T07:56:18.073Z,4.72
2019-01-19T07:58:47.449Z,4.95
2019-01-19T08:11:28.946Z,4.80
2019-01-19T08:13:58.410Z,4.90
2019-01-19T08:16:28.002Z,4.58
2019-01-19T08:18:57.457Z,4.20
2019-01-19T08:21:26.292Z,4.37
2019-01-19T08:23:55.965Z,4.60
2019-01-19T08:26:25.481Z,4.45
2019-01-19T08:28:55.016Z,4.45
2019-01-19T08:31:24.621Z,4.95
2019-01-19T08:33:55.694Z,4.28
2019-01-19T08:36:25.712Z,4.12
2019-01-19T08:38:55.153Z,4.40
2019-01-19T08:41:24.592Z,4.20
2019-01-19T08:43:59.909Z,3.92
2019-01-19T08:46:30.661Z,4.53
2019-01-19T08:49:14.420Z,4.53
2019-01-19T08:51:54.969Z,4.20
2019-01-19T08:54:24.257Z,4.47
2019-01-19T08:56:53.755Z,4.22
2019-01-19T08:59:23.101Z,4.58
2019-01-19T09:01:52.572Z,4.65
2019-01-19T09:04:26.021Z,4.58
2019-01-19T09:06:55.369Z,3.77
2019-01-19T09:09:24.758Z,4.45
2019-01-19T09:11:54.000Z,3.42
2019-01-19T09:14:27.469Z,3.90
2019-01-19T09:16:58.173Z,3.77
2019-01-19T09:19:27.665Z,4.12
2019-01-19T09:22:03.291Z,3.75
2019-01-19T09:24:38.286Z,3.72
2019-01-19T09:27:07.464Z,4.33
2019-01-19T09:29:36.263Z,4.58
2019-01-19T09:32:05.166Z,4.20
2019-01-19T09:34:36.919Z,3.40
2019-01-19T09:37:08.426Z,4.03
2019-01-19T09:39:37.403Z,3.70
2019-01-19T09:42:06.174Z,4.50
2019-01-19T09:44:35.070Z,3.92
2019-01-19T09:47:03.904Z,4.03
2019-01-19T09:49:32.731Z,4.00
2019-01-19T09:52:01.557Z,4.08
2019-01-19T09:54:30.277Z,4.47
2019-01-19T09:56:59.031Z,3.83
2019-01-19T09:59:27.779Z,4.70
2019-01-19T10:01:56.645Z,3.70
2019-01-19T10:04:25.489Z,4.58
2019-01-19T10:06:54.256Z,3.90
2019-01-19T10:09:23.238Z,3.65
2019-01-19T10:11:52.127Z,3.27
2019-01-19T10:14:20.936Z,3.30
2019-01-19T10:17:20.702Z,3.65
2019-01-19T10:19:49.458Z,3.55
2019-01-19T10:22:18.128Z,3.55
2019-01-19T10:24:46.807Z,3.52
2019-01-19T10:27:15.512Z,3.33
2019-01-19T10:29:44.213Z,3.08
2019-01-19T10:32:13.013Z,3.22
2019-01-19T10:34:41.842Z,3.20
2019-01-19T10:37:10.563Z,3.45
2019-01-19T10:39:39.337Z,3.83
2019-01-19T10:42:08.004Z,3.98
2019-01-19T10:44:36.711Z,3.75
2019-01-19T10:47:05.402Z,3.70
2019-01-19T10:49:34.090Z,3.35
2019-01-19T10:52:02.823Z,3.87
2019-01-19T10:54:31.657Z,3.70
2019-01-19T10:57:00.331Z,3.58
2019-01-19T10:59:28.948Z,3.10
2019-01-19T11:01:57.608Z,3.17
2019-01-19T11:04:26.342Z,3.42
2019-01-19T11:06:54.978Z,3.50
2019-01-19T11:09:23.685Z,3.20
2019-01-19T11:11:52.413Z,3.40
2019-01-19T11:14:21.128Z,2.67
2019-01-19T11:16:49.848Z,3.17
2019-01-19T11:19:18.463Z,2.83
2019-01-19T11:21:47.067Z,3.10
2019-01-19T11:24:15.770Z,3.00
2019-01-19T11:26:44.472Z,3.37
2019-01-19T11:29:13.150Z,2.83
2019-01-19T11:31:41.882Z,3.17
2019-01-19T11:34:10.970Z,3.22
2019-01-19T11:36:39.773Z,3.12
2019-01-19T11:39:08.545Z,3.33
2019-01-19T11:41:37.271Z,3.00
2019-01-19T11:44:06.005Z,2.80
2019-01-19T11:46:34.617Z,3.85
2019-01-19T11:49:03.342Z,2.98
2019-01-19T11:51:32.084Z,3.15
2019-01-19T11:54:00.854Z,2.92
2019-01-19T11:56:29.519Z,3.55
2019-01-19T11:58:58.218Z,3.17
2019-01-19T12:01:26.857Z,2.80
2019-01-19T12:03:55.567Z,2.83
2019-01-19T12:06:24.268Z,2.98
2019-01-19T12:08:52.970Z,3.20
2019-01-19T12:11:21.656Z,3.10
2019-01-19T12:13:50.357Z,3.10
2019-01-19T12:16:19.030Z,3.22
2019-01-19T12:18:47.728Z,2.95
2019-01-19T12:21:16.522Z,2.90
2019-01-19T12:23:45.254Z,2.85
2019-01-19T12:26:13.937Z,2.98
2019-01-19T12:28:42.646Z,2.52
2019-01-19T12:31:11.429Z,2.98
2019-01-19T12:33:40.156Z,3.60
2019-01-19T12:36:08.830Z,3.27
2019-01-19T12:38:37.522Z,2.67
2019-01-19T12:41:06.236Z,3.37
2019-01-19T12:43:34.943Z,3.33
2019-01-19T12:46:32.452Z,2.70
2019-01-19T12:52:11.254Z,3.33
2019-01-19T12:54:40.867Z,3.30
2019-01-19T12:57:09.627Z,3.08
2019-01-19T12:59:44.594Z,3.10
2019-01-19T13:02:13.395Z,3.00
2019-01-19T13:04:42.183Z,3.35
2019-01-19T13:07:12.348Z,3.20
2019-01-19T13:09:48.459Z,3.27
2019-01-19T13:12:31.698Z,3.02
2019-01-19T13:15:22.335Z,2.77
2019-01-19T13:18:03.608Z,2.70
2019-01-19T13:21:09.493Z,3.00
2019-01-19T13:23:55.652Z,3.12
2019-01-19T13:26:46.363Z,3.22
2019-01-19T13:29:36.936Z,3.50
2019-01-19T13:32:32.852Z,3.65
2019-01-19T13:35:19.611Z,2.85
2019-01-19T13:38:19.574Z,3.07
2019-01-19T13:44:44.912Z,3.52
2019-01-19T13:47:35.864Z,3.20
2019-01-19T13:53:48.318Z,3.03
2019-01-19T13:56:36.176Z,3.37
2019-01-19T13:59:22.946Z,3.03
2019-01-19T14:02:13.786Z,3.55
2019-01-19T14:04:56.513Z,3.10
2019-01-19T14:07:42.929Z,3.73
2019-01-19T14:10:21.196Z,3.92
2019-01-19T14:13:21.100Z,3.47
2019-01-19T14:16:11.448Z,3.20
2019-01-19T14:18:42.887Z,2.92
2019-01-19T14:21:23.995Z,3.47
2019-01-19T14:24:06.623Z,3.40
2019-01-19T14:26:39.273Z,3.22
2019-01-19T14:29:39.113Z,3.12
2019-01-19T14:32:25.807Z,3.50
2019-01-19T14:35:21.432Z,3.45
2019-01-19T14:37:57.337Z,3.62
2019-01-19T14:40:47.081Z,3.90
2019-01-19T14:43:53.219Z,3.92
2019-01-19T14:46:44.484Z,3.65
2019-01-19T15:04:32.796Z,4.17
2019-01-19T15:17:09.498Z,3.75
2019-01-19T15:19:56.632Z,3.67
2019-01-19T15:22:42.723Z,4.00
2019-01-19T15:25:16.084Z,3.92
2019-01-19T15:42:06.133Z,4.35
2019-01-19T15:44:54.076Z,3.50
2019-01-19T15:51:14.007Z,3.92
2019-01-19T15:53:49.449Z,4.90
2019-01-19T15:56:31.873Z,4.65
2019-01-19T16:12:03.257Z,4.40
2019-01-19T16:14:51.081Z,4.72
2019-01-19T16:17:38.953Z,5.08
2019-01-19T16:20:39.183Z,4.95
2019-01-19T16:34:03.304Z,4.35
2019-01-19T16:36:57.491Z,6.08
2019-01-19T16:39:48.707Z,25.32
2019-01-19T16:42:35.852Z,8.98
2019-01-19T16:45:39.139Z,9.68
2019-01-19T16:48:33.042Z,13.58
2019-01-19T16:51:20.880Z,9.48
2019-01-19T16:53:58.650Z,12.03
2019-01-19T16:56:32.218Z,12.15
2019-01-19T16:59:22.726Z,8.35
2019-01-19T17:02:04.598Z,8.25
2019-01-19T17:04:40.971Z,7.85
2019-01-19T17:07:27.370Z,7.33
2019-01-19T17:10:01.591Z,7.00
2019-01-19T17:12:49.394Z,8.35
2019-01-19T17:15:36.116Z,8.13
2019-01-19T17:18:26.714Z,8.65
2019-01-19T17:21:09.978Z,6.72
2019-01-19T17:24:00.939Z,7.10
2019-01-19T17:26:51.778Z,7.50
2019-01-19T17:29:42.474Z,7.03
2019-01-19T17:32:32.872Z,7.28
2019-01-19T17:35:25.561Z,6.75
2019-01-19T17:38:22.205Z,7.22
2019-01-19T17:50:46.494Z,6.80
2019-01-19T17:53:34.354Z,6.97
2019-01-19T17:56:25.782Z,7.03
2019-01-19T17:59:16.772Z,6.85
2019-01-19T18:02:07.172Z,7.42
2019-01-19T18:04:39.998Z,6.67
2019-01-19T18:07:42.882Z,7.40
2019-01-19T18:10:17.149Z,6.90
2019-01-19T18:13:03.432Z,8.05
2019-01-19T18:16:09.655Z,7.15
2019-01-19T18:19:12.646Z,7.70
2019-01-19T18:25:24.629Z,8.30
2019-01-19T18:28:20.160Z,7.15
2019-01-19T18:34:18.174Z,7.10
2019-01-19T18:36:55.910Z,8.48
2019-01-19T18:39:31.315Z,7.50
2019-01-19T18:42:19.205Z,7.50
2019-01-19T18:45:07.140Z,7.80
2019-01-19T18:47:58.189Z,8.30
2019-01-19T18:51:04.087Z,7.85
2019-01-19T18:53:58.061Z,8.10
2019-01-19T18:56:40.087Z,7.62
2019-01-19T18:59:26.950Z,7.45
2019-01-19T19:02:12.268Z,7.92
2019-01-19T19:04:58.786Z,7.60
2019-01-19T19:08:04.741Z,7.53
2019-01-19T19:10:51.270Z,7.83
2019-01-19T19:13:24.930Z,7.45
2019-01-19T19:16:12.940Z,9.48
2019-01-19T19:19:01.119Z,8.25
2019-01-19T19:21:39.704Z,8.05
2019-01-19T19:24:27.471Z,8.20
2019-01-19T19:27:18.384Z,8.10
2019-01-19T19:30:00.180Z,7.28
2019-01-19T19:32:51.003Z,8.43
2019-01-19T19:35:45.684Z,9.00
2019-01-19T19:38:36.527Z,7.42
2019-01-19T19:41:17.639Z,7.78
2019-01-19T19:44:05.465Z,9.95
2019-01-19T19:46:47.975Z,10.00
2019-01-19T19:49:41.894Z,9.80
2019-01-19T19:52:13.273Z,10.15
2019-01-19T19:54:50.198Z,10.55
2019-01-19T19:57:19.129Z,11.68
2019-01-19T19:59:47.912Z,10.70
2019-01-19T20:02:16.653Z,11.95
2019-01-19T20:04:45.594Z,12.25
2019-01-19T20:07:14.336Z,11.03
2019-01-19T20:09:43.067Z,11.55
2019-01-19T20:12:11.832Z,10.60
2019-01-19T20:14:40.536Z,10.35
2019-01-19T20:17:09.226Z,10.80
2019-01-19T20:19:37.909Z,9.70
2019-01-19T20:22:06.696Z,9.93
2019-01-19T20:24:35.472Z,10.53
2019-01-19T20:27:04.394Z,9.88
2019-01-19T20:29:33.139Z,11.12
2019-01-19T20:32:01.932Z,11.15
2019-01-19T20:34:30.740Z,9.53
2019-01-19T20:37:19.399Z,10.23
2019-01-19T20:39:48.056Z,10.63
2019-01-19T20:42:16.887Z,9.90
2019-01-19T20:44:45.635Z,9.83
2019-01-19T20:47:14.344Z,10.95
2019-01-19T20:49:43.058Z,9.43
2019-01-19T20:52:11.770Z,9.98
2019-01-19T20:54:40.598Z,9.68
2019-01-19T20:57:09.386Z,8.88
2019-01-19T20:59:38.069Z,9.10
2019-01-19T21:02:06.866Z,10.53
2019-01-19T21:04:35.553Z,10.50
2019-01-19T21:07:04.506Z,9.03
2019-01-19T21:09:33.743Z,9.05
2019-01-19T21:12:02.706Z,8.95
2019-01-19T21:14:31.526Z,9.05
2019-01-19T21:17:00.217Z,8.80
2019-01-19T21:19:29.007Z,8.53
2019-01-19T21:21:57.723Z,9.10
2019-01-19T21:24:26.427Z,8.95
2019-01-19T21:26:55.383Z,9.28
2019-01-19T21:29:24.141Z,9.33
2019-01-19T21:31:52.881Z,8.90
2019-01-19T21:34:21.630Z,9.00
2019-01-19T21:36:50.444Z,9.85
2019-01-19T21:39:19.284Z,9.08
2019-01-19T21:41:48.007Z,9.30
2019-01-19T21:44:16.774Z,9.43
2019-01-19T21:46:45.606Z,9.38
2019-01-19T21:49:14.397Z,8.90
2019-01-19T21:51:43.131Z,9.50
2019-01-19T21:54:11.858Z,8.08
2019-01-19T21:56:40.532Z,8.60
2019-01-19T21:59:09.286Z,8.30
2019-01-19T22:01:38.020Z,8.88
2019-01-19T22:04:06.729Z,8.70
2019-01-19T22:06:35.430Z,8.60
2019-01-19T22:09:05.180Z,8.73
2019-01-19T22:11:34.056Z,9.73
2019-01-19T22:14:02.765Z,8.78
2019-01-19T22:20:12.490Z,10.35
2019-01-19T22:22:42.084Z,9.65
2019-01-19T22:25:10.784Z,11.95
2019-01-19T22:27:42.567Z,10.53
2019-01-19T22:30:12.783Z,9.78
2019-01-19T22:32:41.572Z,9.50
2019-01-19T22:58:48.926Z,8.60
2019-01-19T23:01:57.660Z,8.60
2019-01-19T23:05:19.941Z,9.00
2019-01-19T23:15:12.213Z,8.98
2019-01-19T23:18:04.306Z,8.60
2019-01-19T23:28:16.195Z,8.70
2019-01-19T23:31:17.960Z,8.40
2019-01-19T23:34:33.028Z,8.90
2019-01-19T23:40:42.190Z,9.43
2019-01-19T23:43:39.977Z,9.85
2019-01-19T23:47:06.196Z,8.60
2019-01-19T23:50:14.481Z,8.98
2019-01-19T23:55:42.084Z,9.50
2019-01-19T23:58:30.121Z,9.43
